Parnagua, Brazil
Current Conditions -  °F | °C
As of 3:00 PM on Thursday 30 Oct 2014 (Local Time) from SBPJ Reporting Station
Thunderstorm Thunderstorm  
Wind Chill: 91°   Ceiling: Unl
Heat Index: 94°   Visibility: 6mi
Dew Point: 66°   Wind: 7mph
Humidity: 43%   Direction: 290°WNW
Pressure: 29.77"   Gusts: NA
Location:  10.23°S, 44.64°W
Report Text: SBPJ 301800Z 29006KT 9999 TS VCSH SCT030 FEW035TCU FEW040CB 33/19 Q1008
Loading
Personal Weather Stations






























Interactive Weather Map
Tropical Storm Tracking
New forecast layout! Learn more

10-Day Weather Forecast

Advertisements
Track Severe Weather on mobile